Hurghada, Egypti

1. lokakuuta 2016 klo 22:36 (EET) (GMT +0200)
Hurghada International | | Change Station

Kork 46 ft 27.18 °N, 33.80 °E | Updated 36 minutes ago

Clear
Selkeää
82 °F
Tuntuu kuin 82 °F
N
12
Tuuli Suunnaltaan vaihteleva Tuuli ilmansuunnasta Luode

Tänään
Korkea -- | Matala -- °F
--% Sateen mahd.
Eilen
Korkea -- | Matala -- °F
Precip. -- tuumaa
Ilmanpaine 29.77 tuumaa
Näkyvyys -9999.0 mailia
Pilviä
Kastepiste 50 °F
Ilmankosteus 32%
Sademäärä 0.00 tuumaa
Lumensyvyys Ei saatavilla
5:37 AM 5:31 PM
Uusikuu, 1% visible
METAR HEGN 012000Z 31010KT CAVOK 28/10 Q1008 NOSIG
Ilmanpaine 29.77 tuumaa
Näkyvyys -9999.0 mailia
Pilviä
Kastepiste 50 °F
Ilmankosteus 32%
Sademäärä 0.00 tuumaa
Lumensyvyys Ei saatavilla
5:37 AM 5:31 PM
Uusikuu, 1% visible
METAR HEGN 012000Z 31010KT CAVOK 28/10 Q1008 NOSIG

10-Day Weather Forecast

No radar image for this location.
×

Almanac

Tähtitiede

Oct. 01, 2016 Nousuaika Laskuaika
Valoisa aika
Porvarillinen hämärä
Nauttinen hämärä
Astronominen hämärä
Kuu
Näkyvän valon pituus
Päivän pituus
Tomorrow will be .
, % of the Moon is Illuminated

Tämän päivän ennätykset

Country Highs Country Lows

Community

WunderPhotos

Upload Photos

1,943,013 photos uploaded!

WunderBlog® & News

Nearby

Ilmanlaatu

  Ilmanlaatu AQ Index Pollutant
Not available.

Lumensyvyys

Station Depth Korkeus

Maanjäristysaktiivisuus

Paikkakunta Distance Mag. Time & Date
Minimum magnitude displayed is 2.5.

Coastal Water Temperatures

Paikka Lämpötila

Stations

Lähimmät sääasemat

Aseman sijainti Lämpötila Tuulen hyytävyys Kastepiste Ilmankosteus Tuuli Precip. Kork Päivitetty Tyyppi